createdAt,value
2022-08-22T00:01:54.732Z,15.89
2022-08-22T00:02:45.526Z,16.39
2022-08-22T00:04:33.343Z,15.92
2022-08-22T00:07:14.067Z,16.01
2022-08-22T00:09:55.391Z,15.98
2022-08-22T00:12:29.621Z,16.00
2022-08-22T00:15:03.244Z,16.11
2022-08-22T00:17:42.176Z,16.12
2022-08-22T00:20:17.483Z,16.07
2022-08-22T00:22:52.987Z,15.99
2022-08-22T00:25:57.460Z,15.97
2022-08-22T00:28:31.130Z,15.97
2022-08-22T00:31:15.786Z,15.94
2022-08-22T00:33:49.881Z,15.92
2022-08-22T00:36:27.680Z,15.95
2022-08-22T00:39:05.347Z,16.00
2022-08-22T00:41:50.767Z,16.01
2022-08-22T00:44:52.069Z,15.99
2022-08-22T00:47:36.869Z,15.97
2022-08-22T00:50:24.513Z,15.97
2022-08-22T00:53:10.548Z,15.97
2022-08-22T00:55:55.320Z,15.90
2022-08-22T00:58:55.537Z,15.93
2022-08-22T01:01:31.638Z,15.89
2022-08-22T01:04:26.128Z,15.90
2022-08-22T01:07:10.274Z,15.90
2022-08-22T01:09:55.770Z,15.94
2022-08-22T01:12:53.143Z,15.82
2022-08-22T01:15:27.657Z,15.79
2022-08-22T01:18:17.937Z,15.83
2022-08-22T01:21:24.385Z,15.93
2022-08-22T01:24:29.581Z,15.82
2022-08-22T01:27:47.709Z,15.69
2022-08-22T01:31:00.835Z,15.66
2022-08-22T01:34:13.057Z,15.73
2022-08-22T01:36:57.173Z,15.64
2022-08-22T01:39:54.171Z,15.54
2022-08-22T01:42:54.150Z,15.46
2022-08-22T01:45:43.795Z,15.51
2022-08-22T01:48:18.438Z,15.54
2022-08-22T01:50:54.877Z,15.55
2022-08-22T01:53:31.727Z,15.52
2022-08-22T01:56:07.949Z,15.44
2022-08-22T01:58:40.440Z,15.54
2022-08-22T02:01:26.970Z,15.51
2022-08-22T02:04:06.016Z,15.47
2022-08-22T02:06:46.820Z,15.52
2022-08-22T02:09:28.000Z,15.48
2022-08-22T02:11:58.188Z,15.52
2022-08-22T02:14:41.988Z,15.49
2022-08-22T02:17:18.982Z,15.56
2022-08-22T02:19:56.901Z,15.65
2022-08-22T02:22:38.061Z,15.61
2022-08-22T02:25:18.979Z,15.69
2022-08-22T02:27:58.465Z,15.69
2022-08-22T02:30:43.100Z,15.79
2022-08-22T02:33:17.988Z,15.77
2022-08-22T02:35:53.361Z,15.82
2022-08-22T02:38:29.579Z,15.83
2022-08-22T02:41:10.096Z,15.88
2022-08-22T02:43:49.619Z,15.84
2022-08-22T02:46:28.264Z,15.90
2022-08-22T02:49:05.807Z,15.90
2022-08-22T02:51:44.861Z,15.99
2022-08-22T02:54:23.823Z,16.07
2022-08-22T02:56:59.127Z,16.09
2022-08-22T02:59:35.113Z,16.11
2022-08-22T03:02:31.054Z,16.18
2022-08-22T03:05:02.133Z,16.11
2022-08-22T03:07:42.577Z,16.11
2022-08-22T03:10:19.901Z,16.21
2022-08-22T03:13:00.294Z,16.23
2022-08-22T03:15:38.268Z,16.27
2022-08-22T03:18:19.821Z,16.32
2022-08-22T03:20:54.588Z,16.36
2022-08-22T03:23:33.233Z,16.30
2022-08-22T03:26:13.875Z,16.31
2022-08-22T03:28:52.728Z,16.28
2022-08-22T03:31:31.224Z,16.32
2022-08-22T03:34:22.582Z,16.32
2022-08-22T03:37:09.085Z,16.36
2022-08-22T03:39:49.490Z,16.33
2022-08-22T03:42:37.456Z,16.34
2022-08-22T03:45:38.714Z,16.34
2022-08-22T03:48:40.464Z,16.43
2022-08-22T03:51:32.597Z,16.44
2022-08-22T03:54:52.943Z,16.44
2022-08-22T03:57:54.897Z,16.50
2022-08-22T04:01:15.105Z,16.49
2022-08-22T04:04:31.898Z,16.47
2022-08-22T04:07:32.169Z,16.49
2022-08-22T04:10:31.934Z,16.49
2022-08-22T04:13:25.387Z,16.41
2022-08-22T04:16:38.808Z,16.42
2022-08-22T04:19:25.952Z,16.36
2022-08-22T04:22:22.367Z,16.33
2022-08-22T04:24:56.642Z,16.40
2022-08-22T04:27:31.952Z,16.44
2022-08-22T04:30:23.765Z,16.36
2022-08-22T04:33:00.595Z,16.33
2022-08-22T04:35:33.181Z,16.30
2022-08-22T04:38:09.748Z,16.30
2022-08-22T04:40:45.030Z,16.30
2022-08-22T04:43:21.458Z,16.35
2022-08-22T04:45:58.032Z,16.40
2022-08-22T04:48:34.239Z,16.45
2022-08-22T04:51:08.270Z,16.46
2022-08-22T04:53:57.188Z,16.41
2022-08-22T04:56:34.808Z,16.37
2022-08-22T04:59:09.844Z,16.39
2022-08-22T05:01:46.857Z,16.43
2022-08-22T05:04:20.116Z,16.38
2022-08-22T05:06:52.591Z,16.40
2022-08-22T05:09:27.927Z,16.43
2022-08-22T05:12:03.340Z,16.37
2022-08-22T05:14:38.695Z,16.41
2022-08-22T05:17:15.593Z,16.45
2022-08-22T05:19:50.979Z,16.42
2022-08-22T05:22:23.020Z,16.44
2022-08-22T05:24:56.270Z,16.48
2022-08-22T05:27:27.447Z,16.48
2022-08-22T05:30:02.690Z,16.54
2022-08-22T05:32:41.612Z,16.48
2022-08-22T05:35:11.584Z,16.46
2022-08-22T05:37:46.037Z,16.44
2022-08-22T05:40:20.136Z,16.43
2022-08-22T05:42:48.988Z,16.55
2022-08-22T05:45:20.423Z,16.56
2022-08-22T05:47:54.736Z,16.56
2022-08-22T05:50:29.901Z,16.62
2022-08-22T05:53:06.630Z,16.66
2022-08-22T05:55:46.708Z,16.80
2022-08-22T05:58:32.080Z,16.79
2022-08-22T06:01:10.486Z,16.80
2022-08-22T06:03:47.625Z,16.84
2022-08-22T06:06:20.144Z,16.89
2022-08-22T06:08:59.544Z,16.93
2022-08-22T06:11:35.800Z,16.98
2022-08-22T06:14:20.606Z,17.01
2022-08-22T06:17:01.684Z,17.07
2022-08-22T06:19:34.632Z,17.02
2022-08-22T06:22:04.892Z,17.00
2022-08-22T06:24:37.643Z,17.02
2022-08-22T06:27:10.404Z,17.08
2022-08-22T06:29:42.910Z,17.04
2022-08-22T06:32:17.746Z,17.12
2022-08-22T06:35:14.563Z,17.15
2022-08-22T06:37:47.416Z,17.19
2022-08-22T06:40:18.043Z,17.18
2022-08-22T06:42:51.629Z,17.22
2022-08-22T06:45:24.712Z,17.24
2022-08-22T06:48:00.897Z,17.26
2022-08-22T06:50:34.511Z,17.18
2022-08-22T06:53:08.412Z,17.17
2022-08-22T06:55:40.661Z,17.17
2022-08-22T06:58:15.692Z,17.22
2022-08-22T07:00:51.571Z,17.26
2022-08-22T07:03:37.221Z,17.22
2022-08-22T07:06:08.087Z,17.27
2022-08-22T07:08:39.195Z,17.28
2022-08-22T07:11:16.542Z,17.25
2022-08-22T07:13:49.988Z,17.30
2022-08-22T07:16:30.730Z,17.31
2022-08-22T07:19:01.389Z,17.35
2022-08-22T07:21:42.944Z,17.36
2022-08-22T07:24:17.946Z,17.42
2022-08-22T07:27:06.110Z,17.46
2022-08-22T07:29:48.101Z,17.51
2022-08-22T07:32:21.269Z,17.61
2022-08-22T07:35:03.458Z,17.58
2022-08-22T07:37:47.676Z,17.53
2022-08-22T07:40:24.939Z,17.45
2022-08-22T07:43:01.103Z,17.53
2022-08-22T07:45:36.561Z,17.45
2022-08-22T07:48:25.094Z,17.52
2022-08-22T07:51:08.380Z,17.58
2022-08-22T07:53:44.326Z,17.60
2022-08-22T07:56:17.170Z,17.68
2022-08-22T07:58:49.547Z,17.69
2022-08-22T08:01:22.272Z,17.66
2022-08-22T08:03:56.358Z,17.74
2022-08-22T08:06:27.784Z,17.76
2022-08-22T08:08:58.657Z,17.85
2022-08-22T08:11:30.529Z,17.92
2022-08-22T08:14:03.198Z,18.06
2022-08-22T08:16:41.521Z,18.09
2022-08-22T08:19:11.967Z,18.23
2022-08-22T08:21:44.343Z,18.18
2022-08-22T08:24:21.362Z,18.19
2022-08-22T08:27:18.474Z,18.26
2022-08-22T08:29:56.519Z,18.14
2022-08-22T08:32:27.363Z,18.19
2022-08-22T08:34:56.744Z,18.10
2022-08-22T08:37:32.285Z,18.13
2022-08-22T08:40:04.949Z,18.15
2022-08-22T08:43:21.341Z,18.33
2022-08-22T08:46:30.224Z,18.34
2022-08-22T08:49:17.791Z,18.40
2022-08-22T08:52:25.163Z,18.28
2022-08-22T08:55:19.758Z,18.29
2022-08-22T08:58:07.109Z,18.28
2022-08-22T09:00:57.589Z,18.52
2022-08-22T09:04:15.301Z,18.71
2022-08-22T09:07:31.339Z,18.70
2022-08-22T09:10:19.621Z,18.76
2022-08-22T09:13:11.624Z,18.77
2022-08-22T09:16:04.774Z,18.67
2022-08-22T09:19:16.055Z,18.60
2022-08-22T09:22:20.385Z,18.74
2022-08-22T09:25:05.983Z,18.76
2022-08-22T09:27:40.022Z,18.78
2022-08-22T09:30:14.526Z,18.95
2022-08-22T09:32:50.112Z,18.83
2022-08-22T09:35:27.703Z,18.66
2022-08-22T09:38:11.325Z,18.51
2022-08-22T09:40:48.172Z,18.45
2022-08-22T09:43:25.809Z,18.32
2022-08-22T09:46:08.219Z,18.23
2022-08-22T09:48:54.029Z,18.29
2022-08-22T09:51:34.785Z,18.27
2022-08-22T09:54:23.427Z,18.09
2022-08-22T09:57:02.289Z,18.19
2022-08-22T09:59:46.365Z,18.29
2022-08-22T10:02:28.769Z,18.43
2022-08-22T10:05:05.302Z,18.43
2022-08-22T10:07:59.698Z,18.62
2022-08-22T10:10:43.176Z,18.62
2022-08-22T10:13:28.295Z,18.65
2022-08-22T10:16:07.047Z,18.53
2022-08-22T10:18:53.927Z,18.43
2022-08-22T10:21:34.652Z,18.47
2022-08-22T10:24:25.544Z,18.49
2022-08-22T10:26:58.429Z,18.80
2022-08-22T10:29:53.555Z,18.67
2022-08-22T10:32:35.352Z,18.80
2022-08-22T10:35:18.038Z,18.61
2022-08-22T10:37:55.468Z,18.54
2022-08-22T10:40:31.039Z,18.40
2022-08-22T10:43:07.700Z,18.31
2022-08-22T10:45:41.780Z,18.28
2022-08-22T10:48:37.948Z,18.20
2022-08-22T10:51:20.647Z,17.92
2022-08-22T10:54:19.948Z,17.71
2022-08-22T10:56:57.610Z,17.80
2022-08-22T10:59:42.435Z,17.96
2022-08-22T11:02:42.292Z,18.19
2022-08-22T11:05:36.277Z,18.37
2022-08-22T11:08:18.487Z,18.77
2022-08-22T11:11:04.059Z,19.03
2022-08-22T11:13:43.433Z,19.17
2022-08-22T11:16:31.247Z,18.87
2022-08-22T11:19:18.260Z,19.34
2022-08-22T11:22:03.748Z,19.76
2022-08-22T11:25:35.863Z,19.66
2022-08-22T11:28:43.949Z,19.71
2022-08-22T11:31:24.304Z,20.17
2022-08-22T11:33:57.096Z,20.89
2022-08-22T11:36:38.495Z,20.85
2022-08-22T11:39:22.764Z,20.44
2022-08-22T11:42:09.942Z,20.19
2022-08-22T11:44:50.488Z,20.15
2022-08-22T11:47:26.622Z,19.99
2022-08-22T11:50:01.614Z,19.92
2022-08-22T11:52:54.570Z,20.03
2022-08-22T11:55:34.655Z,20.26
2022-08-22T11:58:29.381Z,20.95
2022-08-22T12:01:05.411Z,20.67
2022-08-22T12:03:58.265Z,20.51
2022-08-22T12:06:56.300Z,20.56
2022-08-22T12:09:44.580Z,20.67
2022-08-22T12:12:50.560Z,20.79
2022-08-22T12:15:25.310Z,20.74
2022-08-22T12:18:30.396Z,20.79
2022-08-22T12:21:29.786Z,20.74
2022-08-22T12:24:20.930Z,20.45
2022-08-22T12:26:59.774Z,20.41
2022-08-22T12:29:46.218Z,21.23
2022-08-22T12:32:43.764Z,21.36
2022-08-22T12:35:29.715Z,21.77
2022-08-22T12:38:28.277Z,21.59
2022-08-22T12:41:28.261Z,21.54
2022-08-22T12:44:23.401Z,21.78
2022-08-22T12:47:09.271Z,21.65
2022-08-22T12:49:53.300Z,21.63
2022-08-22T12:52:37.755Z,22.32
2022-08-22T12:55:30.365Z,22.81
2022-08-22T12:58:08.469Z,22.82
2022-08-22T13:00:41.556Z,22.33
2022-08-22T13:03:20.072Z,22.17
2022-08-22T13:05:56.694Z,22.00
2022-08-22T13:08:33.437Z,22.19
2022-08-22T13:11:22.833Z,22.28
2022-08-22T13:13:57.366Z,22.20
2022-08-22T13:16:36.443Z,22.13
2022-08-22T13:19:13.728Z,22.06
2022-08-22T13:21:48.796Z,22.33
2022-08-22T13:24:38.473Z,22.16
2022-08-22T13:27:12.674Z,22.31
2022-08-22T13:29:48.699Z,22.55
2022-08-22T13:32:29.730Z,22.99
2022-08-22T13:35:01.213Z,23.05
2022-08-22T13:37:37.979Z,23.20
2022-08-22T13:40:11.446Z,23.23
2022-08-22T13:42:48.726Z,23.00
2022-08-22T13:45:25.741Z,23.43
2022-08-22T13:47:59.219Z,23.64
2022-08-22T13:50:53.298Z,24.06
2022-08-22T13:53:33.233Z,23.92
2022-08-22T13:56:15.539Z,24.17
2022-08-22T13:58:47.640Z,24.15
2022-08-22T14:01:38.113Z,24.19
2022-08-22T14:04:33.339Z,24.80
2022-08-22T14:07:25.577Z,25.21
2022-08-22T14:09:58.995Z,25.39
2022-08-22T14:12:50.529Z,25.55
2022-08-22T14:15:24.915Z,25.20
2022-08-22T14:18:03.295Z,24.96
2022-08-22T14:20:33.929Z,25.55
2022-08-22T14:23:10.646Z,25.80
2022-08-22T14:25:43.503Z,26.14
2022-08-22T14:28:27.352Z,25.40
2022-08-22T14:31:03.612Z,26.48
2022-08-22T14:33:39.858Z,26.40
2022-08-22T14:36:17.085Z,26.69
2022-08-22T14:38:53.427Z,27.15
2022-08-22T14:41:52.784Z,27.55
2022-08-22T14:44:24.605Z,27.33
2022-08-22T14:46:57.274Z,27.59
2022-08-22T14:49:32.212Z,27.59
2022-08-22T14:52:09.121Z,28.20
2022-08-22T14:54:42.562Z,28.73
2022-08-22T14:57:19.957Z,28.92
2022-08-22T14:59:53.884Z,29.38
2022-08-22T15:02:28.270Z,29.44
2022-08-22T15:05:01.922Z,28.90
2022-08-22T15:07:37.527Z,29.05
2022-08-22T15:10:11.924Z,28.82
2022-08-22T15:12:48.771Z,26.85
2022-08-22T15:15:31.154Z,27.22
2022-08-22T15:18:00.020Z,27.74
2022-08-22T15:20:34.122Z,28.33
2022-08-22T15:23:09.892Z,28.10
2022-08-22T15:25:42.925Z,29.52
2022-08-22T15:28:20.808Z,29.30
2022-08-22T15:31:03.434Z,29.75
2022-08-22T15:33:36.202Z,28.48
2022-08-22T15:36:15.878Z,29.60
2022-08-22T15:38:48.063Z,29.93
2022-08-22T15:41:42.642Z,30.68
2022-08-22T15:44:33.001Z,29.29
2022-08-22T15:47:10.878Z,27.47
2022-08-22T15:49:52.553Z,28.47
2022-08-22T15:52:29.025Z,27.58
2022-08-22T15:55:24.676Z,26.21
2022-08-22T15:58:09.062Z,25.81
2022-08-22T16:00:45.417Z,26.15
2022-08-22T16:03:25.991Z,25.58
2022-08-22T16:06:00.380Z,25.55
2022-08-22T16:08:33.440Z,25.58
2022-08-22T16:11:33.083Z,24.53
2022-08-22T16:14:25.338Z,24.14
2022-08-22T16:17:02.350Z,24.06
2022-08-22T16:19:33.142Z,24.31
2022-08-22T16:22:14.842Z,24.45
2022-08-22T16:25:07.057Z,24.27
2022-08-22T16:27:54.461Z,24.21
2022-08-22T16:30:38.082Z,24.01
2022-08-22T16:33:12.197Z,24.01
2022-08-22T16:36:24.535Z,23.76
2022-08-22T16:38:57.315Z,23.65
2022-08-22T16:41:37.311Z,23.64
2022-08-22T16:44:24.241Z,23.48
2022-08-22T16:47:07.249Z,23.36
2022-08-22T16:49:40.908Z,23.20
2022-08-22T16:52:54.863Z,23.09
2022-08-22T16:56:10.729Z,23.11
2022-08-22T16:59:22.868Z,22.99
2022-08-22T17:02:13.396Z,22.76
2022-08-22T17:04:52.017Z,22.75
2022-08-22T17:07:34.555Z,22.84
2022-08-22T17:10:24.106Z,22.94
2022-08-22T17:13:09.766Z,23.10
2022-08-22T17:16:01.393Z,23.25
2022-08-22T17:19:00.304Z,23.36
2022-08-22T17:21:32.259Z,23.42
2022-08-22T17:24:31.551Z,23.39
2022-08-22T17:27:07.733Z,23.29
2022-08-22T17:29:55.351Z,23.23
2022-08-22T17:32:35.360Z,23.14
2022-08-22T17:35:22.141Z,23.07
2022-08-22T17:38:09.643Z,23.07
2022-08-22T17:40:47.192Z,22.98
2022-08-22T17:43:27.829Z,22.95
2022-08-22T17:46:20.429Z,23.10
2022-08-22T17:48:56.047Z,23.03
2022-08-22T17:51:32.671Z,23.03
2022-08-22T17:54:07.693Z,23.12
2022-08-22T17:56:44.559Z,23.00
2022-08-22T17:59:21.050Z,22.86
2022-08-22T18:01:52.944Z,22.81
2022-08-22T18:04:54.143Z,22.71
2022-08-22T18:07:36.563Z,22.64
2022-08-22T18:10:11.187Z,22.52
2022-08-22T18:12:46.425Z,22.53
2022-08-22T18:15:24.697Z,22.50
2022-08-22T18:17:59.092Z,22.34
2022-08-22T18:20:36.038Z,22.28
2022-08-22T18:23:21.702Z,22.24
2022-08-22T18:26:16.053Z,22.16
2022-08-22T18:28:50.348Z,22.04
2022-08-22T18:31:39.766Z,22.02
2022-08-22T18:34:17.217Z,21.88
2022-08-22T18:36:55.281Z,21.79
2022-08-22T18:39:42.553Z,21.86
2022-08-22T18:42:23.899Z,21.73
2022-08-22T18:45:16.198Z,21.68
2022-08-22T18:47:56.789Z,21.69
2022-08-22T18:50:35.000Z,21.61
2022-08-22T18:53:33.773Z,21.49
2022-08-22T18:56:19.995Z,21.41
2022-08-22T18:59:05.348Z,21.47
2022-08-22T19:01:47.539Z,21.47
2022-08-22T19:04:45.829Z,21.53
2022-08-22T19:07:36.666Z,21.42
2022-08-22T19:10:20.778Z,21.42
2022-08-22T19:13:17.387Z,21.41
2022-08-22T19:15:57.777Z,21.24
2022-08-22T19:18:37.205Z,21.24
2022-08-22T19:21:37.824Z,21.12
2022-08-22T19:24:09.480Z,21.04
2022-08-22T19:26:44.558Z,21.06
2022-08-22T19:30:06.080Z,20.94
2022-08-22T19:33:01.739Z,21.03
2022-08-22T19:35:47.381Z,21.05
2022-08-22T19:39:09.225Z,21.14
2022-08-22T19:41:47.913Z,21.11
2022-08-22T19:44:45.139Z,21.04
2022-08-22T19:47:41.149Z,20.97
2022-08-22T19:50:28.516Z,21.05
2022-08-22T19:53:24.246Z,20.96
2022-08-22T19:56:11.007Z,20.93
2022-08-22T19:58:56.217Z,20.90
2022-08-22T20:01:39.435Z,20.87
2022-08-22T20:04:24.965Z,20.87
2022-08-22T20:07:14.610Z,20.89
2022-08-22T20:09:54.663Z,20.86
2022-08-22T20:12:38.166Z,20.87
2022-08-22T20:15:28.576Z,20.77
2022-08-22T20:18:46.422Z,20.70
2022-08-22T20:21:01.253Z,20.64
2022-08-22T20:23:33.447Z,20.71
2022-08-22T20:26:02.911Z,20.73
2022-08-22T20:28:58.222Z,20.58
2022-08-22T20:31:28.575Z,20.60
2022-08-22T20:34:04.592Z,20.53
2022-08-22T20:36:33.966Z,20.48
2022-08-22T20:39:09.572Z,20.44
2022-08-22T20:41:50.494Z,20.49
2022-08-22T20:44:24.637Z,20.40
2022-08-22T20:46:58.059Z,20.39
2022-08-22T20:49:30.935Z,20.42
2022-08-22T20:52:03.320Z,20.46
2022-08-22T20:54:38.354Z,20.40
2022-08-22T20:57:20.656Z,20.41
2022-08-22T20:59:53.934Z,20.39
2022-08-22T21:02:25.617Z,20.40
2022-08-22T21:05:03.594Z,20.39
2022-08-22T21:07:37.730Z,20.38
2022-08-22T21:10:40.569Z,20.29
2022-08-22T21:13:15.346Z,20.22
2022-08-22T21:15:48.644Z,20.19
2022-08-22T21:18:34.731Z,20.17
2022-08-22T21:21:17.067Z,20.13
2022-08-22T21:23:49.244Z,20.14
2022-08-22T21:26:26.551Z,20.09
2022-08-22T21:29:00.201Z,20.03
2022-08-22T21:31:32.100Z,20.13
2022-08-22T21:34:01.960Z,20.17
2022-08-22T21:36:34.325Z,20.21
2022-08-22T21:39:06.593Z,20.22
2022-08-22T21:41:41.358Z,20.25
2022-08-22T21:44:36.444Z,20.18
2022-08-22T21:47:31.263Z,20.12
2022-08-22T21:50:05.314Z,20.10
2022-08-22T21:52:35.996Z,20.01
2022-08-22T21:55:27.563Z,20.01
2022-08-22T21:58:10.485Z,20.01
2022-08-22T22:00:53.120Z,20.00
2022-08-22T22:03:23.305Z,20.01
2022-08-22T22:05:55.030Z,20.03
2022-08-22T22:08:59.837Z,20.04
2022-08-22T22:11:28.591Z,20.03
2022-08-22T22:13:58.623Z,20.01
2022-08-22T22:16:32.741Z,20.01
2022-08-22T22:19:02.229Z,19.94
2022-08-22T22:21:31.444Z,19.92
2022-08-22T22:24:00.232Z,19.94
2022-08-22T22:26:28.962Z,19.97
2022-08-22T22:29:00.525Z,20.04
2022-08-22T22:31:28.964Z,20.01
2022-08-22T22:34:02.639Z,19.96
2022-08-22T22:36:31.823Z,20.02
2022-08-22T22:39:06.592Z,20.06
2022-08-22T22:41:35.292Z,20.06
2022-08-22T22:44:07.758Z,20.06
2022-08-22T22:46:36.926Z,20.05
2022-08-22T22:49:06.316Z,20.02
2022-08-22T22:51:34.848Z,19.99
2022-08-22T22:54:03.793Z,20.04
2022-08-22T22:56:33.381Z,20.09
2022-08-22T22:59:13.656Z,20.04
2022-08-22T23:02:07.147Z,20.08
2022-08-22T23:04:38.207Z,20.10
2022-08-22T23:07:07.861Z,20.05
2022-08-22T23:09:38.543Z,20.04
2022-08-22T23:12:13.643Z,20.03
2022-08-22T23:14:42.148Z,20.03
2022-08-22T23:17:12.623Z,20.06
2022-08-22T23:19:41.456Z,20.03
2022-08-22T23:22:12.644Z,20.02
2022-08-22T23:24:43.078Z,20.04
2022-08-22T23:27:14.405Z,20.08
2022-08-22T23:29:43.892Z,20.01
2022-08-22T23:32:15.718Z,20.03
2022-08-22T23:34:49.078Z,20.08
2022-08-22T23:37:20.671Z,20.11
2022-08-22T23:39:49.750Z,20.10
2022-08-22T23:42:19.643Z,20.03
2022-08-22T23:44:48.289Z,20.00
2022-08-22T23:47:18.592Z,20.06
2022-08-22T23:49:47.191Z,20.10
2022-08-22T23:52:15.836Z,20.13
2022-08-22T23:54:44.712Z,20.09
2022-08-22T23:57:13.702Z,20.10
2022-08-22T23:59:48.576Z,20.08
